createdAt,value
2022-09-12T00:02:14.661Z,21.90
2022-09-12T00:04:44.431Z,23.17
2022-09-12T00:07:14.171Z,18.73
2022-09-12T00:09:43.922Z,21.83
2022-09-12T00:12:13.657Z,17.10
2022-09-12T00:14:43.428Z,22.43
2022-09-12T00:17:13.253Z,26.53
2022-09-12T00:19:43.005Z,20.27
2022-09-12T00:22:13.140Z,25.27
2022-09-12T00:24:42.895Z,21.63
2022-09-12T00:27:12.643Z,23.10
2022-09-12T00:29:42.681Z,23.87
2022-09-12T00:32:12.207Z,22.87
2022-09-12T00:34:41.952Z,21.30
2022-09-12T00:37:11.690Z,24.10
2022-09-12T00:39:41.593Z,25.00
2022-09-12T00:42:13.214Z,23.83
2022-09-12T00:44:45.688Z,26.50
2022-09-12T00:47:23.751Z,23.45
2022-09-12T00:50:02.459Z,24.90
2022-09-12T00:52:38.207Z,22.47
2022-09-12T00:55:13.936Z,20.10
2022-09-12T00:57:58.737Z,21.25
2022-09-12T01:00:30.028Z,23.15
2022-09-12T01:03:02.834Z,25.87
2022-09-12T01:05:35.488Z,20.37
2022-09-12T01:08:07.118Z,24.73
2022-09-12T01:10:39.082Z,25.83
2022-09-12T01:13:11.138Z,23.23
2022-09-12T01:15:41.411Z,25.77
2022-09-12T01:18:14.885Z,24.84
2022-09-12T01:21:05.743Z,25.60
2022-09-12T01:23:41.516Z,24.17
2022-09-12T01:26:38.076Z,26.26
2022-09-12T01:29:39.158Z,26.03
2022-09-12T01:32:28.666Z,23.22
2022-09-12T01:35:04.347Z,22.40
2022-09-12T01:37:45.688Z,24.73
2022-09-12T01:40:30.315Z,22.13
2022-09-12T01:43:26.671Z,25.23
2022-09-12T01:46:02.455Z,23.87
2022-09-12T01:48:35.812Z,25.67
2022-09-12T01:51:24.531Z,23.33
2022-09-12T01:53:57.347Z,23.53
2022-09-12T01:56:29.653Z,24.37
2022-09-12T01:59:08.453Z,25.15
2022-09-12T02:01:49.039Z,22.42
2022-09-12T02:04:31.049Z,23.60
2022-09-12T02:07:10.775Z,22.80
2022-09-12T02:09:50.002Z,24.90
2022-09-12T02:12:22.519Z,23.13
2022-09-12T02:14:55.488Z,23.40
2022-09-12T02:17:27.159Z,25.90
2022-09-12T02:20:02.642Z,23.67
2022-09-12T02:22:34.672Z,23.17
2022-09-12T02:25:08.497Z,23.50
2022-09-12T02:27:46.982Z,22.60
2022-09-12T02:30:19.404Z,21.50
2022-09-12T02:33:04.083Z,24.10
2022-09-12T02:35:45.787Z,27.20
2022-09-12T02:38:34.558Z,24.80
2022-09-12T02:41:04.609Z,23.00
2022-09-12T02:43:35.180Z,27.15
2022-09-12T02:46:12.318Z,28.30
2022-09-12T02:48:44.476Z,29.10
2022-09-12T02:51:14.560Z,27.87
2022-09-12T02:53:45.061Z,32.13
2022-09-12T02:56:17.909Z,26.27
2022-09-12T02:58:48.573Z,28.73
2022-09-12T03:01:36.193Z,30.57
2022-09-12T03:04:17.765Z,25.23
2022-09-12T03:06:59.523Z,28.10
2022-09-12T03:09:46.932Z,27.30
2022-09-12T03:12:40.352Z,31.40
2022-09-12T03:15:40.560Z,28.80
2022-09-12T03:18:31.240Z,26.60
2022-09-12T03:21:09.795Z,30.73
2022-09-12T03:24:15.752Z,31.02
2022-09-12T03:27:00.717Z,34.63
2022-09-12T03:29:31.529Z,35.38
2022-09-12T03:32:01.265Z,43.93
2022-09-12T03:34:31.006Z,39.07
2022-09-12T03:37:00.819Z,40.17
2022-09-12T03:39:30.963Z,45.83
2022-09-12T03:42:00.524Z,46.35
2022-09-12T03:44:30.559Z,50.28
2022-09-12T03:47:00.604Z,53.95
2022-09-12T03:49:30.360Z,54.03
2022-09-12T03:52:00.094Z,52.73
2022-09-12T03:54:29.836Z,54.40
2022-09-12T03:56:59.590Z,53.93
2022-09-12T03:59:29.661Z,54.75
2022-09-12T04:01:59.542Z,52.43
2022-09-12T04:04:29.661Z,48.33
2022-09-12T04:06:59.542Z,55.73
2022-09-12T04:09:29.848Z,49.55
2022-09-12T04:11:59.886Z,54.73
2022-09-12T04:14:29.635Z,52.67
2022-09-12T04:16:59.208Z,50.85
2022-09-12T04:19:29.196Z,60.03
2022-09-12T04:21:59.381Z,66.87
2022-09-12T04:24:29.120Z,69.10
2022-09-12T04:26:58.932Z,65.90
2022-09-12T04:29:29.426Z,69.30
2022-09-12T04:31:59.173Z,68.17
2022-09-12T04:34:32.088Z,68.07
2022-09-12T04:37:01.824Z,72.17
2022-09-12T04:39:31.564Z,79.87
2022-09-12T04:42:01.330Z,80.53
2022-09-12T04:44:31.535Z,76.73
2022-09-12T04:47:01.592Z,73.65
2022-09-12T04:49:31.712Z,80.15
2022-09-12T04:52:01.648Z,81.53
2022-09-12T04:54:31.383Z,77.90
2022-09-12T04:57:01.255Z,75.40
2022-09-12T04:59:31.015Z,85.00
2022-09-12T05:02:00.869Z,81.53
2022-09-12T05:04:31.546Z,89.00
2022-09-12T05:07:01.574Z,85.70
2022-09-12T05:09:31.789Z,83.00
2022-09-12T05:12:04.613Z,83.40
2022-09-12T05:14:33.325Z,84.70
2022-09-12T05:17:04.110Z,88.87
2022-09-12T05:19:34.159Z,80.80
2022-09-12T05:22:06.626Z,79.03
2022-09-12T05:24:38.633Z,83.50
2022-09-12T05:27:08.391Z,79.07
2022-09-12T05:29:38.138Z,74.67
2022-09-12T05:32:09.704Z,81.37
2022-09-12T05:34:41.141Z,76.50
2022-09-12T05:37:10.895Z,76.83
2022-09-12T05:39:40.696Z,78.17
2022-09-12T05:42:12.097Z,84.60
2022-09-12T05:44:41.840Z,77.33
2022-09-12T05:47:13.288Z,71.25
2022-09-12T05:49:44.674Z,77.37
2022-09-12T05:52:14.121Z,76.85
2022-09-12T05:54:44.032Z,81.33
2022-09-12T05:57:13.768Z,88.93
2022-09-12T05:59:43.335Z,83.20
2022-09-12T06:02:13.205Z,86.32
2022-09-12T06:04:43.475Z,83.30
2022-09-12T06:07:14.420Z,85.83
2022-09-12T06:09:44.166Z,74.10
2022-09-12T06:12:13.898Z,80.37
2022-09-12T06:14:43.640Z,79.20
2022-09-12T06:17:14.138Z,79.00
2022-09-12T06:19:43.874Z,86.50
2022-09-12T06:22:13.906Z,82.17
2022-09-12T06:24:43.680Z,78.30
2022-09-12T06:27:13.228Z,72.40
2022-09-12T06:29:42.972Z,86.97
2022-09-12T06:32:12.714Z,86.30
2022-09-12T06:34:42.823Z,81.22
2022-09-12T06:37:12.637Z,85.30
2022-09-12T06:39:42.731Z,81.35
2022-09-12T06:42:13.836Z,85.93
2022-09-12T06:44:45.348Z,84.27
2022-09-12T06:47:15.108Z,88.23
2022-09-12T06:49:44.850Z,84.70
2022-09-12T06:52:14.304Z,84.77
2022-09-12T06:54:44.052Z,84.63
2022-09-12T06:57:13.804Z,86.10
2022-09-12T06:59:43.543Z,79.80
2022-09-12T07:02:13.429Z,86.95
2022-09-12T07:04:43.343Z,87.13
2022-09-12T07:07:13.099Z,81.00
2022-09-12T07:09:42.853Z,88.20
2022-09-12T07:12:12.527Z,89.85
2022-09-12T07:14:42.282Z,86.43
2022-09-12T07:17:12.423Z,82.37
2022-09-12T07:19:42.131Z,77.50
2022-09-12T07:22:12.239Z,67.55
2022-09-12T07:24:41.992Z,78.20
2022-09-12T07:27:11.737Z,69.43
2022-09-12T07:29:41.212Z,64.05
2022-09-12T07:32:12.017Z,68.78
2022-09-12T07:34:41.828Z,59.00
2022-09-12T07:37:11.649Z,58.50
2022-09-12T07:39:41.766Z,63.55
2022-09-12T07:42:12.522Z,53.56
2022-09-12T07:44:42.335Z,53.03
2022-09-12T07:47:12.092Z,52.23
2022-09-12T07:49:41.850Z,49.23
2022-09-12T07:52:11.774Z,48.25
2022-09-12T07:54:41.529Z,44.20
2022-09-12T07:57:11.331Z,44.87
2022-09-12T07:59:52.606Z,45.47
2022-09-12T08:02:17.272Z,45.75
2022-09-12T08:04:45.998Z,43.17
2022-09-12T08:07:15.823Z,41.80
2022-09-12T08:09:46.111Z,41.07
2022-09-12T08:12:17.682Z,44.10
2022-09-12T08:14:48.153Z,34.50
2022-09-12T08:17:17.927Z,37.57
2022-09-12T08:19:48.151Z,37.53
2022-09-12T08:22:19.535Z,37.87
2022-09-12T08:24:50.785Z,34.35
2022-09-12T08:27:20.623Z,33.83
2022-09-12T08:29:50.389Z,34.63
2022-09-12T08:32:20.297Z,35.30
2022-09-12T08:34:50.064Z,36.93
2022-09-12T08:37:19.952Z,31.77
2022-09-12T08:39:49.781Z,36.47
2022-09-12T08:42:23.939Z,32.50
2022-09-12T08:45:05.210Z,33.47
2022-09-12T08:47:40.560Z,38.87
2022-09-12T08:50:18.625Z,37.46
2022-09-12T08:56:03.782Z,36.33
2022-09-12T08:58:36.647Z,32.80
2022-09-12T09:01:18.252Z,39.70
2022-09-12T09:04:03.198Z,33.97
2022-09-12T09:06:59.180Z,32.63
2022-09-12T09:09:55.673Z,32.17
2022-09-12T09:12:43.122Z,31.53
2022-09-12T09:15:27.794Z,30.72
2022-09-12T09:18:04.119Z,28.25
2022-09-12T09:20:43.506Z,28.40
2022-09-12T09:23:37.582Z,27.90
2022-09-12T09:26:11.441Z,24.77
2022-09-12T09:28:53.170Z,23.83
2022-09-12T09:31:25.365Z,26.17
2022-09-12T09:33:56.148Z,22.37
2022-09-12T09:36:28.726Z,27.77
2022-09-12T09:39:18.624Z,20.97
2022-09-12T09:42:14.802Z,19.60
2022-09-12T09:44:47.256Z,19.50
2022-09-12T09:47:19.610Z,17.83
2022-09-12T09:49:49.366Z,19.30
2022-09-12T09:52:22.152Z,16.30
2022-09-12T09:54:55.056Z,19.33
2022-09-12T09:57:40.861Z,14.67
2022-09-12T10:00:25.470Z,18.86
2022-09-12T10:03:31.365Z,14.23
2022-09-12T10:06:08.888Z,15.70
2022-09-12T10:08:39.235Z,13.27
2022-09-12T10:11:17.626Z,11.70
2022-09-12T10:13:57.738Z,11.30
2022-09-12T10:16:30.505Z,12.58
2022-09-12T10:19:02.674Z,13.13
2022-09-12T10:21:41.632Z,12.03
2022-09-12T10:24:43.566Z,13.70
2022-09-12T10:27:16.917Z,8.88
2022-09-12T10:29:52.446Z,13.43
2022-09-12T10:32:31.049Z,14.37
2022-09-12T10:35:03.967Z,10.67
2022-09-12T10:37:41.128Z,10.73
2022-09-12T10:40:24.893Z,11.20
2022-09-12T10:42:57.079Z,8.73
2022-09-12T10:45:32.679Z,8.37
2022-09-12T10:48:07.742Z,9.95
2022-09-12T10:50:42.961Z,8.70
2022-09-12T10:53:34.355Z,8.57
2022-09-12T10:56:04.657Z,9.60
2022-09-12T10:58:42.689Z,5.28
2022-09-12T11:01:24.156Z,7.10
2022-09-12T11:04:21.087Z,8.30
2022-09-12T11:07:11.851Z,10.93
2022-09-12T11:09:47.058Z,9.35
2022-09-12T11:12:25.408Z,10.60
2022-09-12T11:15:17.066Z,10.17
2022-09-12T11:17:49.848Z,10.77
2022-09-12T11:20:34.226Z,6.45
2022-09-12T11:23:22.062Z,7.93
2022-09-12T11:26:03.571Z,6.27
2022-09-12T11:28:47.094Z,6.53
2022-09-12T11:31:45.988Z,5.23
2022-09-12T11:34:18.758Z,7.85
2022-09-12T11:36:54.352Z,6.53
2022-09-12T11:39:26.767Z,5.67
2022-09-12T11:42:02.375Z,7.93
2022-09-12T11:44:40.549Z,5.80
2022-09-12T11:47:13.453Z,8.93
2022-09-12T11:49:49.085Z,5.70
2022-09-12T11:52:21.605Z,5.43
2022-09-12T11:55:03.777Z,6.92
2022-09-12T11:57:44.489Z,7.60
2022-09-12T12:00:20.418Z,5.25
2022-09-12T12:03:11.203Z,4.10
2022-09-12T12:05:58.210Z,4.70
2022-09-12T12:08:30.989Z,6.40
2022-09-12T12:11:05.588Z,5.62
2022-09-12T12:13:39.296Z,4.75
2022-09-12T12:16:26.060Z,5.12
2022-09-12T12:18:58.587Z,7.30
2022-09-12T12:21:49.286Z,6.63
2022-09-12T12:24:24.414Z,5.15
2022-09-12T12:27:06.082Z,8.57
2022-09-12T12:29:45.838Z,6.20
2022-09-12T12:32:21.003Z,9.38
2022-09-12T12:34:50.612Z,8.13
2022-09-12T12:37:23.391Z,4.97
2022-09-12T12:40:00.227Z,5.50
2022-09-12T12:42:38.891Z,4.63
2022-09-12T12:45:12.090Z,4.37
2022-09-12T12:47:45.249Z,4.60
2022-09-12T12:50:23.282Z,4.60
2022-09-12T12:52:56.165Z,5.33
2022-09-12T12:55:40.649Z,5.60
2022-09-12T12:58:31.641Z,6.00
2022-09-12T13:01:16.778Z,8.07
2022-09-12T13:03:49.933Z,5.33
2022-09-12T13:06:28.304Z,5.92
2022-09-12T13:09:06.550Z,5.77
2022-09-12T13:11:42.023Z,4.17
2022-09-12T13:14:46.726Z,4.10
2022-09-12T13:17:22.621Z,6.87
2022-09-12T13:20:16.940Z,5.33
2022-09-12T13:22:26.263Z,4.78
2022-09-12T13:24:56.009Z,5.10
2022-09-12T13:27:26.885Z,4.60
2022-09-12T13:30:11.754Z,3.60
2022-09-12T13:32:42.949Z,6.13
2022-09-12T13:35:34.550Z,3.10
2022-09-12T13:38:18.674Z,3.40
2022-09-12T13:41:24.020Z,2.37
2022-09-12T13:43:53.906Z,5.83
2022-09-12T13:46:30.261Z,3.37
2022-09-12T13:49:02.839Z,2.67
2022-09-12T13:51:33.667Z,3.10
2022-09-12T13:54:06.410Z,4.67
2022-09-12T13:56:39.206Z,4.20
2022-09-12T13:59:13.328Z,4.13
2022-09-12T14:01:45.161Z,3.30
2022-09-12T14:04:41.317Z,4.37
2022-09-12T14:07:20.124Z,3.07
2022-09-12T14:10:00.834Z,3.43
2022-09-12T14:12:40.990Z,4.58
2022-09-12T14:15:23.674Z,3.80
2022-09-12T14:17:56.540Z,14.20
2022-09-12T14:20:26.104Z,7.10
2022-09-12T14:22:56.105Z,4.23
2022-09-12T14:25:27.763Z,8.70
2022-09-12T14:27:59.004Z,2.70
2022-09-12T14:30:37.143Z,4.65
2022-09-12T14:33:16.007Z,7.73
2022-09-12T14:35:53.717Z,4.07
2022-09-12T14:38:29.265Z,5.07
2022-09-12T14:43:36.943Z,4.37
2022-09-12T14:46:21.368Z,5.67
2022-09-12T14:48:54.318Z,3.83
2022-09-12T14:51:29.743Z,3.90
2022-09-12T14:53:59.567Z,2.60
2022-09-12T14:56:46.667Z,2.65
2022-09-12T14:59:36.261Z,5.20
2022-09-12T15:02:16.854Z,4.22
2022-09-12T15:04:48.941Z,6.93
2022-09-12T15:07:24.696Z,4.20
2022-09-12T15:09:54.436Z,7.85
2022-09-12T15:12:25.119Z,5.10
2022-09-12T15:14:57.903Z,5.73
2022-09-12T15:17:27.637Z,7.97
2022-09-12T15:19:57.679Z,5.45
2022-09-12T15:22:27.674Z,5.35
2022-09-12T15:24:57.484Z,5.43
2022-09-12T15:27:27.475Z,4.43
2022-09-12T15:29:57.288Z,5.57
2022-09-12T15:32:29.448Z,4.90
2022-09-12T15:34:59.213Z,5.80
2022-09-12T15:37:28.941Z,6.50
2022-09-12T15:39:58.734Z,4.90
2022-09-12T15:42:31.272Z,7.17
2022-09-12T15:45:02.716Z,4.93
2022-09-12T15:47:32.713Z,4.80
2022-09-12T15:50:02.452Z,5.47
2022-09-12T15:52:33.048Z,7.90
2022-09-12T15:55:03.192Z,7.30
2022-09-12T15:57:32.925Z,4.90
2022-09-12T16:00:02.791Z,7.10
2022-09-12T16:02:34.276Z,5.33
2022-09-12T16:05:04.674Z,5.67
2022-09-12T16:07:34.449Z,6.23
2022-09-12T16:10:06.695Z,3.75
2022-09-12T16:12:36.422Z,3.43
2022-09-12T16:15:08.232Z,5.72
2022-09-12T16:17:37.969Z,3.17
2022-09-12T16:20:10.000Z,3.20
2022-09-12T16:22:40.184Z,3.87
2022-09-12T16:25:10.807Z,4.30
2022-09-12T16:27:40.602Z,3.80
2022-09-12T16:30:13.335Z,4.26
2022-09-12T16:32:43.060Z,8.27
2022-09-12T16:35:12.829Z,4.87
2022-09-12T16:37:42.430Z,4.55
2022-09-12T16:40:15.736Z,4.28
2022-09-12T16:42:48.726Z,31.15
2022-09-12T16:45:18.166Z,6.00
2022-09-12T16:47:47.907Z,4.13
2022-09-12T16:50:17.408Z,5.70
2022-09-12T16:52:47.140Z,4.00
2022-09-12T16:55:16.987Z,4.15
2022-09-12T16:57:48.460Z,4.63
2022-09-12T17:00:18.176Z,3.67
2022-09-12T17:02:48.336Z,6.33
2022-09-12T17:05:18.157Z,6.70
2022-09-12T17:07:47.969Z,3.50
2022-09-12T17:10:17.961Z,3.13
2022-09-12T17:12:47.708Z,4.10
2022-09-12T17:15:17.790Z,2.33
2022-09-12T17:17:47.679Z,2.50
2022-09-12T17:20:17.576Z,2.75
2022-09-12T17:22:47.292Z,5.63
2022-09-12T17:25:17.141Z,3.33
2022-09-12T17:27:46.852Z,2.87
2022-09-12T17:30:16.836Z,2.17
2022-09-12T17:32:46.579Z,5.50
2022-09-12T17:35:16.711Z,3.52
2022-09-12T17:37:46.724Z,3.37
2022-09-12T17:40:16.350Z,3.53
2022-09-12T17:42:46.134Z,4.37
2022-09-12T17:45:18.421Z,3.60
2022-09-12T17:47:47.597Z,2.42
2022-09-12T17:50:39.299Z,4.28
2022-09-12T17:52:51.830Z,3.33
2022-09-12T17:55:21.418Z,5.23
2022-09-12T17:57:51.134Z,3.37
2022-09-12T18:00:22.427Z,3.73
2022-09-12T18:02:52.199Z,5.93
2022-09-12T18:05:21.780Z,2.73
2022-09-12T18:07:52.882Z,3.20
2022-09-12T18:10:22.784Z,3.92
2022-09-12T18:12:52.673Z,3.53
2022-09-12T18:15:22.581Z,4.50
2022-09-12T18:17:52.602Z,2.60
2022-09-12T18:20:22.057Z,3.60
2022-09-12T18:22:51.800Z,5.93
2022-09-12T18:25:21.598Z,5.17
2022-09-12T18:27:51.393Z,5.07
2022-09-12T18:30:22.570Z,3.30
2022-09-12T18:32:52.607Z,8.13
2022-09-12T18:35:22.040Z,4.75
2022-09-12T18:37:51.769Z,7.10
2022-09-12T18:40:21.308Z,3.60
2022-09-12T18:42:51.490Z,3.13
2022-09-12T18:45:21.505Z,4.20
2022-09-12T18:47:51.267Z,4.50
2022-09-12T18:50:20.986Z,3.17
2022-09-12T18:52:55.659Z,4.60
2022-09-12T18:55:24.432Z,2.77
2022-09-12T18:57:55.747Z,9.13
2022-09-12T19:00:25.515Z,8.00
2022-09-12T19:02:55.225Z,4.23
2022-09-12T19:05:25.932Z,5.20
2022-09-12T19:07:55.662Z,5.53
2022-09-12T19:10:25.765Z,5.22
2022-09-12T19:12:55.571Z,5.90
2022-09-12T19:15:25.286Z,6.33
2022-09-12T19:17:55.012Z,4.77
2022-09-12T19:20:24.457Z,6.63
2022-09-12T19:22:54.188Z,7.07
2022-09-12T19:25:24.012Z,5.53
2022-09-12T19:27:53.728Z,4.80
2022-09-12T19:30:23.811Z,5.80
2022-09-12T19:32:53.532Z,4.20
2022-09-12T19:35:22.967Z,4.30
2022-09-12T19:37:52.775Z,7.27
2022-09-12T19:40:22.622Z,7.85
2022-09-12T19:42:52.346Z,6.37
2022-09-12T19:45:22.069Z,7.28
2022-09-12T19:47:51.869Z,7.13
2022-09-12T19:50:21.573Z,13.03
2022-09-12T19:52:51.679Z,11.68
2022-09-12T19:55:22.162Z,10.07
2022-09-12T19:57:51.882Z,8.83
2022-09-12T20:00:22.288Z,8.68
2022-09-12T20:02:53.248Z,10.77
2022-09-12T20:05:22.765Z,7.30
2022-09-12T20:07:52.213Z,11.15
2022-09-12T20:10:21.956Z,5.25
2022-09-12T20:12:51.749Z,9.60
2022-09-12T20:15:21.184Z,8.10
2022-09-12T20:17:56.130Z,9.57
2022-09-12T20:20:26.506Z,7.17
2022-09-12T20:22:56.237Z,6.27
2022-09-12T20:25:25.676Z,6.37
2022-09-12T20:27:59.920Z,7.17
2022-09-12T20:30:27.232Z,10.15
2022-09-12T20:32:56.954Z,9.53
2022-09-12T20:35:26.691Z,9.80
2022-09-12T20:37:56.706Z,8.75
2022-09-12T20:40:26.510Z,15.00
2022-09-12T20:42:56.265Z,7.87
2022-09-12T20:45:25.760Z,8.48
2022-09-12T20:47:55.766Z,7.60
2022-09-12T20:50:25.936Z,6.90
2022-09-12T20:52:55.661Z,8.73
2022-09-12T20:55:26.433Z,9.95
2022-09-12T20:57:56.165Z,10.27
2022-09-12T21:00:25.929Z,7.25
2022-09-12T21:02:55.768Z,7.43
2022-09-12T21:05:25.236Z,13.22
2022-09-12T21:07:54.982Z,9.63
2022-09-12T21:10:24.730Z,10.28
2022-09-12T21:12:54.626Z,12.80
2022-09-12T21:15:24.053Z,11.63
2022-09-12T21:17:53.942Z,6.83
2022-09-12T21:20:23.587Z,8.70
2022-09-12T21:22:53.320Z,8.27
2022-09-12T21:25:22.763Z,13.67
2022-09-12T21:27:52.508Z,9.73
2022-09-12T21:30:22.543Z,8.63
2022-09-12T21:32:52.264Z,8.70
2022-09-12T21:35:22.010Z,7.12
2022-09-12T21:37:53.173Z,7.00
2022-09-12T21:40:23.073Z,12.27
2022-09-12T21:42:52.799Z,9.67
2022-09-12T21:45:22.236Z,15.77
2022-09-12T21:47:51.973Z,8.53
2022-09-12T21:50:21.702Z,9.00
2022-09-12T21:52:51.745Z,6.28
2022-09-12T21:55:22.862Z,11.30
2022-09-12T21:57:52.607Z,15.13
2022-09-12T22:00:22.644Z,11.73
2022-09-12T22:02:53.660Z,10.20
2022-09-12T22:05:24.529Z,7.55
2022-09-12T22:07:54.587Z,10.60
2022-09-12T22:10:25.005Z,12.50
2022-09-12T22:12:54.752Z,10.10
2022-09-12T22:15:40.232Z,10.67
2022-09-12T22:17:56.678Z,8.17
2022-09-12T22:20:26.509Z,10.48
2022-09-12T22:23:13.686Z,10.17
2022-09-12T22:25:43.482Z,12.23
2022-09-12T22:28:13.674Z,12.37
2022-09-12T22:30:46.453Z,13.97
2022-09-12T22:33:16.270Z,17.50
2022-09-12T22:35:46.000Z,11.13
2022-09-12T22:38:15.742Z,10.25
2022-09-12T22:40:45.479Z,13.07
2022-09-12T22:43:15.676Z,11.03
2022-09-12T22:45:45.413Z,11.40
2022-09-12T22:48:16.797Z,17.43
2022-09-12T22:53:23.799Z,10.38
2022-09-12T22:55:53.611Z,10.27
2022-09-12T22:58:23.056Z,14.27
2022-09-12T23:00:52.959Z,12.70
2022-09-12T23:03:22.787Z,10.03
2022-09-12T23:05:52.578Z,10.30
2022-09-12T23:08:22.191Z,12.97
2022-09-12T23:10:51.680Z,10.03
2022-09-12T23:13:21.441Z,11.13
2022-09-12T23:15:56.235Z,12.55
2022-09-12T23:18:26.079Z,10.53
2022-09-12T23:21:03.213Z,9.10
2022-09-12T23:23:33.655Z,13.63
2022-09-12T23:26:15.122Z,12.13
2022-09-12T23:28:50.639Z,15.50
2022-09-12T23:31:21.451Z,12.83
2022-09-12T23:33:56.260Z,10.47
2022-09-12T23:36:27.107Z,10.53
2022-09-12T23:38:57.288Z,10.83
2022-09-12T23:41:27.159Z,12.60
2022-09-12T23:43:57.237Z,10.10
2022-09-12T23:46:27.356Z,12.47
2022-09-12T23:48:57.111Z,11.03
2022-09-12T23:51:27.069Z,13.77
2022-09-12T23:53:56.818Z,11.80
2022-09-12T23:56:26.808Z,11.95
2022-09-12T23:58:56.540Z,12.27
